Arganda, Spain
Current Conditions -  °F | °C
As of 1:30 PM on Friday 28 Nov 2014 (Local Time) from LEMD Reporting Station
Light Rain Light Rain  
Wind Chill: 52°   Ceiling: 3500
Heat Index: 52°   Visibility: 6mi
Dew Point: 48°   Wind: 14mph
Humidity: 88%   Direction: 150°SSE
Pressure: 29.12"   Gusts: NA
Location:  40.3°N, 3.44°W
Report Text: LEMD 281230Z 15012KT 9000 -RA SCT015 BKN035 11/09 Q0986 R88/29//95 NOSIG
Loading
Personal Weather Stations






























Interactive Weather Map New forecast layout! Learn more

10-Day Weather Forecast

Advertisements
Track Severe Weather on mobile